createdAt,value
2018-06-14T00:01:16.768Z,14.83
2018-06-14T00:03:29.236Z,14.80
2018-06-14T00:05:41.689Z,14.77
2018-06-14T00:07:54.060Z,14.78
2018-06-14T00:10:06.734Z,14.80
2018-06-14T00:12:19.127Z,14.82
2018-06-14T00:14:31.522Z,14.80
2018-06-14T00:16:43.874Z,14.75
2018-06-14T00:18:56.415Z,14.74
2018-06-14T00:21:08.831Z,14.77
2018-06-14T00:23:21.247Z,14.76
2018-06-14T00:25:33.591Z,14.72
2018-06-14T00:27:46.050Z,14.76
2018-06-14T00:29:58.426Z,14.72
2018-06-14T00:32:10.786Z,14.72
2018-06-14T00:34:23.109Z,14.78
2018-06-14T00:36:35.438Z,14.80
2018-06-14T00:38:47.778Z,14.79
2018-06-14T00:41:00.207Z,14.70
2018-06-14T00:43:12.618Z,14.64
2018-06-14T00:45:25.238Z,14.60
2018-06-14T00:47:37.625Z,14.60
2018-06-14T00:49:50.070Z,14.58
2018-06-14T00:52:02.576Z,14.58
2018-06-14T00:54:15.033Z,14.56
2018-06-14T00:56:27.518Z,14.55
2018-06-14T00:58:39.878Z,14.53
2018-06-14T01:00:52.375Z,14.53
2018-06-14T01:03:04.787Z,14.55
2018-06-14T01:05:17.257Z,14.53
2018-06-14T01:07:29.678Z,14.50
2018-06-14T01:09:42.093Z,14.49
2018-06-14T01:11:54.565Z,14.44
2018-06-14T01:14:07.355Z,14.39
2018-06-14T01:16:19.865Z,14.41
2018-06-14T01:18:32.216Z,14.46
2018-06-14T01:20:44.717Z,14.50
2018-06-14T01:22:57.114Z,14.52
2018-06-14T01:25:09.565Z,14.52
2018-06-14T01:27:22.050Z,14.50
2018-06-14T01:29:34.420Z,14.54
2018-06-14T01:31:46.944Z,14.53
2018-06-14T01:33:59.379Z,14.50
2018-06-14T01:36:11.755Z,14.51
2018-06-14T01:38:25.196Z,14.49
2018-06-14T01:40:37.615Z,14.49
2018-06-14T01:42:50.031Z,14.49
2018-06-14T01:45:02.444Z,14.47
2018-06-14T01:47:14.754Z,14.45
2018-06-14T01:49:27.241Z,14.48
2018-06-14T01:51:39.550Z,14.48
2018-06-14T01:53:51.923Z,14.48
2018-06-14T01:56:04.349Z,14.45
2018-06-14T01:58:16.920Z,14.39
2018-06-14T02:00:29.314Z,14.40
2018-06-14T02:02:41.750Z,14.35
2018-06-14T02:04:54.134Z,14.32
2018-06-14T02:07:06.434Z,14.30
2018-06-14T02:09:19.111Z,14.26
2018-06-14T02:11:31.597Z,14.27
2018-06-14T02:13:43.934Z,14.27
2018-06-14T02:15:56.282Z,14.22
2018-06-14T02:18:08.598Z,14.18
2018-06-14T02:20:20.990Z,14.16
2018-06-14T02:22:33.307Z,14.12
2018-06-14T02:24:45.619Z,14.08
2018-06-14T02:26:58.180Z,14.05
2018-06-14T02:29:10.566Z,13.99
2018-06-14T02:31:22.953Z,13.97
2018-06-14T02:33:35.390Z,13.98
2018-06-14T02:35:47.790Z,13.97
2018-06-14T02:38:00.206Z,13.99
2018-06-14T02:40:13.127Z,13.98
2018-06-14T02:42:25.482Z,13.99
2018-06-14T02:44:37.850Z,13.98
2018-06-14T02:46:50.446Z,14.00
2018-06-14T02:49:02.879Z,14.03
2018-06-14T02:51:15.302Z,14.00
2018-06-14T02:53:27.690Z,13.97
2018-06-14T02:55:40.142Z,13.97
2018-06-14T02:57:52.570Z,13.92
2018-06-14T03:00:05.842Z,13.92
2018-06-14T03:02:18.178Z,13.95
2018-06-14T03:04:30.663Z,13.95
2018-06-14T03:06:43.055Z,13.97
2018-06-14T03:08:55.422Z,13.92
2018-06-14T03:11:07.833Z,13.92
2018-06-14T03:13:20.313Z,13.92
2018-06-14T03:15:32.686Z,13.93
2018-06-14T03:17:45.078Z,13.93
2018-06-14T03:19:57.567Z,13.93
2018-06-14T03:22:09.894Z,13.91
2018-06-14T03:24:22.231Z,13.93
2018-06-14T03:26:34.535Z,13.86
2018-06-14T03:28:46.926Z,13.83
2018-06-14T03:30:59.323Z,13.80
2018-06-14T03:33:11.661Z,13.81
2018-06-14T03:35:24.090Z,13.80
2018-06-14T03:37:36.469Z,13.76
2018-06-14T03:39:48.868Z,13.83
2018-06-14T03:42:07.185Z,13.84
2018-06-14T03:44:19.622Z,13.80
2018-06-14T03:46:32.055Z,13.78
2018-06-14T03:48:44.377Z,13.77
2018-06-14T03:50:56.880Z,13.78
2018-06-14T03:53:09.233Z,13.80
2018-06-14T03:55:21.910Z,13.86
2018-06-14T03:57:34.319Z,13.90
2018-06-14T03:59:46.707Z,13.91
2018-06-14T04:01:59.040Z,13.95
2018-06-14T04:04:11.512Z,13.98
2018-06-14T04:06:23.907Z,13.97
2018-06-14T04:08:36.651Z,13.99
2018-06-14T04:10:49.070Z,14.04
2018-06-14T04:13:01.398Z,14.07
2018-06-14T04:15:13.711Z,14.07
2018-06-14T04:17:26.105Z,14.06
2018-06-14T04:19:38.469Z,14.05
2018-06-14T04:21:50.849Z,14.04
2018-06-14T04:24:03.335Z,14.05
2018-06-14T04:26:15.922Z,14.10
2018-06-14T04:28:28.299Z,14.15
2018-06-14T04:30:40.663Z,14.30
2018-06-14T04:32:53.167Z,14.48
2018-06-14T04:35:06.366Z,14.58
2018-06-14T04:37:18.834Z,14.79
2018-06-14T04:39:31.205Z,15.01
2018-06-14T04:41:43.548Z,15.20
2018-06-14T04:43:56.038Z,15.37
2018-06-14T04:46:08.449Z,15.45
2018-06-14T04:48:20.825Z,15.51
2018-06-14T04:50:37.006Z,15.56
2018-06-14T04:52:49.475Z,15.53
2018-06-14T04:55:04.645Z,15.52
2018-06-14T04:57:17.770Z,15.47
2018-06-14T04:59:30.262Z,15.41
2018-06-14T05:01:42.732Z,15.30
2018-06-14T05:03:55.406Z,15.26
2018-06-14T05:06:07.885Z,15.26
2018-06-14T05:08:23.538Z,15.25
2018-06-14T05:10:35.884Z,15.27
2018-06-14T05:12:48.306Z,15.25
2018-06-14T05:15:00.687Z,15.25
2018-06-14T05:17:13.253Z,15.29
2018-06-14T05:19:25.594Z,15.32
2018-06-14T05:21:37.997Z,15.35
2018-06-14T05:23:50.398Z,15.37
2018-06-14T05:26:02.813Z,15.39
2018-06-14T05:28:15.110Z,15.41
2018-06-14T05:30:27.444Z,15.44
2018-06-14T05:32:40.055Z,15.49
2018-06-14T05:34:52.397Z,15.53
2018-06-14T05:37:04.865Z,15.50
2018-06-14T05:39:17.250Z,15.49
2018-06-14T05:41:29.618Z,15.55
2018-06-14T05:43:42.184Z,15.56
2018-06-14T05:45:54.768Z,15.51
2018-06-14T05:48:07.211Z,15.55
2018-06-14T05:50:19.618Z,15.61
2018-06-14T05:52:31.999Z,15.66
2018-06-14T05:54:44.426Z,15.69
2018-06-14T05:56:56.830Z,15.75
2018-06-14T05:59:12.956Z,15.76
2018-06-14T06:01:25.363Z,15.78
2018-06-14T06:03:37.769Z,15.85
2018-06-14T06:05:50.188Z,15.90
2018-06-14T06:08:02.686Z,15.99
2018-06-14T06:10:17.710Z,16.06
2018-06-14T06:12:32.366Z,16.11
2018-06-14T06:14:44.682Z,16.15
2018-06-14T06:16:57.075Z,16.23
2018-06-14T06:19:09.533Z,16.32
2018-06-14T06:21:21.973Z,16.39
2018-06-14T06:23:34.373Z,16.46
2018-06-14T06:25:46.882Z,16.49
2018-06-14T06:27:59.288Z,16.52
2018-06-14T06:30:11.721Z,16.59
2018-06-14T06:32:24.190Z,16.57
2018-06-14T06:34:36.642Z,16.64
2018-06-14T06:36:48.998Z,16.68
2018-06-14T06:39:01.319Z,16.67
2018-06-14T06:41:13.711Z,16.75
2018-06-14T06:43:26.124Z,16.83
2018-06-14T06:45:38.669Z,16.88
2018-06-14T06:47:51.134Z,16.98
2018-06-14T06:50:03.574Z,16.93
2018-06-14T06:52:15.958Z,16.99
2018-06-14T06:54:28.377Z,17.10
2018-06-14T06:56:40.881Z,17.20
2018-06-14T06:58:53.378Z,17.27
2018-06-14T07:01:06.053Z,17.30
2018-06-14T07:03:18.426Z,17.36
2018-06-14T07:05:30.802Z,17.47
2018-06-14T07:07:43.166Z,17.52
2018-06-14T07:09:55.537Z,17.55
2018-06-14T07:12:07.872Z,17.63
2018-06-14T07:14:20.342Z,17.70
2018-06-14T07:16:32.940Z,17.67
2018-06-14T07:18:45.346Z,17.80
2018-06-14T07:20:57.736Z,17.83
2018-06-14T07:23:10.223Z,17.77
2018-06-14T07:25:22.601Z,17.73
2018-06-14T07:27:35.140Z,17.79
2018-06-14T07:29:47.538Z,17.98
2018-06-14T07:31:59.900Z,18.03
2018-06-14T07:34:12.304Z,18.03
2018-06-14T07:36:24.662Z,18.16
2018-06-14T07:38:36.996Z,18.36
2018-06-14T07:40:49.407Z,18.33
2018-06-14T07:43:01.784Z,18.33
2018-06-14T07:45:14.281Z,18.46
2018-06-14T07:47:26.666Z,18.65
2018-06-14T07:49:39.006Z,18.69
2018-06-14T07:51:51.403Z,18.76
2018-06-14T07:54:03.959Z,18.92
2018-06-14T07:56:16.410Z,19.06
2018-06-14T07:58:28.866Z,19.22
2018-06-14T08:00:41.366Z,19.00
2018-06-14T08:02:53.806Z,18.89
2018-06-14T08:05:06.217Z,18.93
2018-06-14T08:07:18.734Z,18.87
2018-06-14T08:09:31.196Z,18.87
2018-06-14T08:11:43.570Z,18.87
2018-06-14T08:13:56.010Z,19.00
2018-06-14T08:16:08.439Z,19.05
2018-06-14T08:18:20.821Z,18.92
2018-06-14T08:20:33.159Z,18.86
2018-06-14T08:22:45.558Z,18.86
2018-06-14T08:24:58.027Z,18.76
2018-06-14T08:27:10.683Z,18.71
2018-06-14T08:29:23.169Z,18.65
2018-06-14T08:31:35.623Z,18.59
2018-06-14T08:33:48.008Z,18.52
2018-06-14T08:36:00.536Z,18.54
2018-06-14T08:38:12.887Z,18.58
2018-06-14T08:40:25.351Z,18.59
2018-06-14T08:42:37.727Z,18.62
2018-06-14T08:44:50.133Z,18.62
2018-06-14T08:47:02.546Z,18.57
2018-06-14T08:49:14.971Z,18.49
2018-06-14T08:51:27.298Z,18.39
2018-06-14T08:53:39.641Z,18.36
2018-06-14T08:55:52.090Z,18.37
2018-06-14T08:58:04.715Z,18.42
2018-06-14T09:00:17.287Z,18.45
2018-06-14T09:02:29.662Z,18.53
2018-06-14T09:04:42.108Z,18.65
2018-06-14T09:06:54.632Z,18.70
2018-06-14T09:09:08.228Z,18.70
2018-06-14T09:11:20.598Z,18.74
2018-06-14T09:13:32.936Z,18.67
2018-06-14T09:15:45.414Z,18.76
2018-06-14T09:17:57.766Z,18.71
2018-06-14T09:20:10.170Z,18.72
2018-06-14T09:22:22.770Z,18.80
2018-06-14T09:24:35.158Z,18.91
2018-06-14T09:26:47.522Z,18.95
2018-06-14T09:28:59.999Z,18.93
2018-06-14T09:31:12.400Z,18.97
2018-06-14T09:33:24.857Z,18.96
2018-06-14T09:35:37.294Z,18.98
2018-06-14T09:37:49.738Z,19.01
2018-06-14T09:40:02.105Z,19.04
2018-06-14T09:42:14.594Z,19.03
2018-06-14T09:44:26.933Z,19.05
2018-06-14T09:46:39.378Z,19.07
2018-06-14T09:48:56.366Z,18.88
2018-06-14T09:51:08.771Z,18.95
2018-06-14T09:53:21.230Z,19.01
2018-06-14T09:55:33.582Z,19.20
2018-06-14T09:57:46.043Z,19.25
2018-06-14T09:59:58.502Z,19.37
2018-06-14T10:02:10.870Z,19.50
2018-06-14T10:04:23.246Z,19.51
2018-06-14T10:06:35.665Z,19.61
2018-06-14T10:08:48.089Z,19.67
2018-06-14T10:11:00.734Z,19.77
2018-06-14T10:13:13.181Z,19.94
2018-06-14T10:15:25.686Z,20.17
2018-06-14T10:17:38.074Z,20.43
2018-06-14T10:19:50.474Z,20.47
2018-06-14T10:22:02.854Z,20.49
2018-06-14T10:24:15.390Z,20.48
2018-06-14T10:26:27.911Z,20.48
2018-06-14T10:28:40.277Z,20.50
2018-06-14T10:30:52.660Z,20.54
2018-06-14T10:33:05.351Z,20.70
2018-06-14T10:35:17.710Z,20.96
2018-06-14T10:37:30.155Z,21.46
2018-06-14T10:39:42.574Z,21.92
2018-06-14T10:41:54.941Z,22.21
2018-06-14T10:44:07.395Z,22.29
2018-06-14T10:46:19.792Z,22.44
2018-06-14T10:48:32.159Z,22.75
2018-06-14T10:50:44.594Z,22.52
2018-06-14T10:52:57.097Z,22.23
2018-06-14T10:55:09.519Z,21.81
2018-06-14T10:57:21.926Z,21.57
2018-06-14T10:59:34.310Z,21.34
2018-06-14T11:01:46.703Z,21.28
2018-06-14T11:03:59.209Z,21.25
2018-06-14T11:06:11.690Z,21.19
2018-06-14T11:08:24.034Z,21.01
2018-06-14T11:10:36.494Z,20.90
2018-06-14T11:12:49.109Z,20.89
2018-06-14T11:15:01.507Z,20.94
2018-06-14T11:17:13.882Z,20.87
2018-06-14T11:19:26.331Z,20.83
2018-06-14T11:21:38.705Z,20.93
2018-06-14T11:23:51.182Z,20.64
2018-06-14T11:26:03.652Z,20.49
2018-06-14T11:28:15.986Z,20.59
2018-06-14T11:30:28.358Z,20.60
2018-06-14T11:32:40.729Z,20.59
2018-06-14T11:34:53.503Z,20.62
2018-06-14T11:37:05.883Z,20.49
2018-06-14T11:39:18.239Z,20.49
2018-06-14T11:41:30.634Z,20.53
2018-06-14T11:43:43.113Z,20.47
2018-06-14T11:45:55.565Z,20.43
2018-06-14T11:48:08.080Z,20.42
2018-06-14T11:50:20.742Z,20.31
2018-06-14T11:52:33.158Z,20.21
2018-06-14T11:54:45.644Z,20.23
2018-06-14T11:56:58.219Z,20.32
2018-06-14T11:59:10.628Z,20.38
2018-06-14T12:01:23.097Z,20.39
2018-06-14T12:03:35.423Z,20.19
2018-06-14T12:05:47.754Z,20.17
2018-06-14T12:08:00.131Z,20.22
2018-06-14T12:10:13.137Z,20.21
2018-06-14T12:12:25.477Z,20.27
2018-06-14T12:14:37.937Z,20.43
2018-06-14T12:16:50.345Z,20.52
2018-06-14T12:19:02.807Z,20.68
2018-06-14T12:21:15.136Z,20.91
2018-06-14T12:23:27.569Z,20.86
2018-06-14T12:25:40.374Z,20.90
2018-06-14T12:27:52.751Z,20.95
2018-06-14T12:30:05.110Z,20.87
2018-06-14T12:32:17.636Z,20.83
2018-06-14T12:34:30.094Z,20.71
2018-06-14T12:36:42.511Z,20.69
2018-06-14T12:38:54.918Z,20.74
2018-06-14T12:41:07.378Z,20.73
2018-06-14T12:43:19.810Z,20.69
2018-06-14T12:45:32.138Z,20.50
2018-06-14T12:47:44.474Z,20.21
2018-06-14T12:49:57.097Z,20.24
2018-06-14T12:52:09.451Z,20.26
2018-06-14T12:54:21.831Z,20.41
2018-06-14T12:56:34.238Z,20.50
2018-06-14T12:58:46.579Z,20.51
2018-06-14T13:00:58.986Z,20.47
2018-06-14T13:03:11.321Z,20.44
2018-06-14T13:05:23.708Z,20.53
2018-06-14T13:07:36.021Z,20.61
2018-06-14T13:09:48.422Z,20.78
2018-06-14T13:12:00.957Z,21.03
2018-06-14T13:14:13.282Z,21.20
2018-06-14T13:16:25.654Z,21.29
2018-06-14T13:18:38.257Z,21.37
2018-06-14T13:20:50.873Z,21.32
2018-06-14T13:23:03.251Z,21.26
2018-06-14T13:25:15.716Z,21.39
2018-06-14T13:27:28.070Z,21.45
2018-06-14T13:29:40.886Z,21.48
2018-06-14T13:31:53.264Z,21.47
2018-06-14T13:34:05.942Z,21.50
2018-06-14T13:36:18.287Z,21.45
2018-06-14T13:38:30.642Z,21.36
2018-06-14T13:40:43.060Z,21.39
2018-06-14T13:42:55.458Z,21.49
2018-06-14T13:45:07.894Z,21.41
2018-06-14T13:47:20.202Z,20.84
2018-06-14T13:49:32.616Z,20.89
2018-06-14T13:51:45.256Z,21.08
2018-06-14T13:53:57.682Z,21.19
2018-06-14T13:56:10.134Z,21.20
2018-06-14T13:58:22.570Z,21.22
2018-06-14T14:00:35.047Z,21.25
2018-06-14T14:02:47.442Z,21.34
2018-06-14T14:04:59.759Z,21.32
2018-06-14T14:07:12.234Z,21.29
2018-06-14T14:09:24.639Z,21.19
2018-06-14T14:11:37.012Z,21.22
2018-06-14T14:13:49.423Z,21.35
2018-06-14T14:16:01.882Z,21.32
2018-06-14T14:18:14.242Z,21.38
2018-06-14T14:20:26.766Z,21.45
2018-06-14T14:22:39.207Z,21.46
2018-06-14T14:24:52.391Z,21.43
2018-06-14T14:27:04.787Z,21.44
2018-06-14T14:29:17.338Z,21.47
2018-06-14T14:31:29.820Z,21.41
2018-06-14T14:33:42.398Z,21.34
2018-06-14T14:35:54.815Z,21.13
2018-06-14T14:38:07.255Z,21.13
2018-06-14T14:40:19.682Z,21.18
2018-06-14T14:42:32.062Z,21.29
2018-06-14T14:44:44.482Z,21.36
2018-06-14T14:46:56.853Z,21.29
2018-06-14T14:49:09.291Z,21.19
2018-06-14T14:51:21.674Z,21.23
2018-06-14T14:53:33.982Z,21.24
2018-06-14T14:55:46.420Z,21.28
2018-06-14T14:57:58.809Z,21.26
2018-06-14T15:00:11.301Z,21.35
2018-06-14T15:02:23.925Z,21.45
2018-06-14T15:04:36.357Z,21.40
2018-06-14T15:06:48.838Z,21.43
2018-06-14T15:09:01.257Z,21.49
2018-06-14T15:11:13.698Z,21.53
2018-06-14T15:13:26.127Z,21.60
2018-06-14T15:15:38.516Z,21.69
2018-06-14T15:17:50.918Z,21.52
2018-06-14T15:20:03.341Z,21.58
2018-06-14T15:22:15.720Z,21.57
2018-06-14T15:24:28.180Z,21.62
2018-06-14T15:26:40.581Z,21.63
2018-06-14T15:28:53.147Z,21.47
2018-06-14T15:31:05.522Z,21.34
2018-06-14T15:33:17.834Z,21.30
2018-06-14T15:35:30.258Z,21.26
2018-06-14T15:37:42.622Z,21.26
2018-06-14T15:39:55.045Z,21.25
2018-06-14T15:42:07.403Z,21.13
2018-06-14T15:44:19.965Z,21.20
2018-06-14T15:46:32.718Z,21.24
2018-06-14T15:48:45.230Z,21.28
2018-06-14T15:50:57.990Z,21.33
2018-06-14T15:53:10.425Z,21.34
2018-06-14T15:55:33.012Z,21.32
2018-06-14T15:57:45.516Z,21.33
2018-06-14T15:59:57.870Z,21.27
2018-06-14T16:02:10.275Z,21.26
2018-06-14T16:04:22.642Z,21.33
2018-06-14T16:06:35.078Z,21.35
2018-06-14T16:08:47.582Z,21.27
2018-06-14T16:10:59.938Z,21.22
2018-06-14T16:13:12.414Z,21.20
2018-06-14T16:15:24.839Z,21.15
2018-06-14T16:17:37.339Z,21.18
2018-06-14T16:19:49.767Z,21.10
2018-06-14T16:22:02.122Z,21.10
2018-06-14T16:24:14.572Z,21.16
2018-06-14T16:26:26.957Z,21.13
2018-06-14T16:28:39.333Z,21.14
2018-06-14T16:30:51.887Z,21.08
2018-06-14T16:33:04.592Z,21.12
2018-06-14T16:35:17.049Z,21.12
2018-06-14T16:37:29.502Z,21.16
2018-06-14T16:39:41.968Z,21.17
2018-06-14T16:41:54.372Z,21.15
2018-06-14T16:44:06.826Z,21.20
2018-06-14T16:46:19.208Z,21.14
2018-06-14T16:48:31.714Z,21.18
2018-06-14T16:50:44.111Z,21.17
2018-06-14T16:52:56.557Z,21.20
2018-06-14T16:55:09.076Z,21.23
2018-06-14T16:57:21.489Z,21.21
2018-06-14T16:59:33.875Z,21.21
2018-06-14T17:01:46.385Z,21.17
2018-06-14T17:03:59.239Z,21.15
2018-06-14T17:06:11.624Z,21.18
2018-06-14T17:08:24.245Z,21.15
2018-06-14T17:10:36.709Z,21.18
2018-06-14T17:12:49.189Z,21.29
2018-06-14T17:15:01.585Z,21.35
2018-06-14T17:17:13.970Z,21.27
2018-06-14T17:19:26.483Z,21.20
2018-06-14T17:21:38.855Z,21.11
2018-06-14T17:23:51.237Z,21.01
2018-06-14T17:26:03.647Z,20.97
2018-06-14T17:28:16.114Z,20.93
2018-06-14T17:30:28.478Z,20.85
2018-06-14T17:32:41.023Z,20.83
2018-06-14T17:34:53.613Z,20.79
2018-06-14T17:37:05.994Z,20.72
2018-06-14T17:39:18.413Z,20.67
2018-06-14T17:41:30.822Z,20.58
2018-06-14T17:43:43.186Z,20.53
2018-06-14T17:45:55.520Z,20.43
2018-06-14T17:48:07.899Z,20.37
2018-06-14T17:50:20.547Z,20.33
2018-06-14T17:52:32.988Z,20.33
2018-06-14T17:54:45.508Z,20.31
2018-06-14T17:56:57.895Z,20.22
2018-06-14T17:59:10.243Z,20.23
2018-06-14T18:01:22.779Z,20.45
2018-06-14T18:03:35.236Z,20.68
2018-06-14T18:05:47.639Z,20.84
2018-06-14T18:08:00.002Z,20.88
2018-06-14T18:10:12.408Z,20.75
2018-06-14T18:12:24.822Z,20.63
2018-06-14T18:14:37.233Z,20.61
2018-06-14T18:16:49.671Z,20.52
2018-06-14T18:19:02.066Z,20.40
2018-06-14T18:21:14.616Z,20.27
2018-06-14T18:23:26.999Z,20.19
2018-06-14T18:25:39.434Z,20.21
2018-06-14T18:27:51.771Z,20.30
2018-06-14T18:30:04.203Z,20.38
2018-06-14T18:32:16.791Z,20.48
2018-06-14T18:34:29.227Z,20.53
2018-06-14T18:36:41.643Z,20.44
2018-06-14T18:38:54.095Z,20.33
2018-06-14T18:41:06.582Z,20.16
2018-06-14T18:43:19.120Z,20.02
2018-06-14T18:45:31.484Z,19.79
2018-06-14T18:47:43.946Z,19.69
2018-06-14T18:49:56.367Z,19.72
2018-06-14T18:52:08.866Z,19.67
2018-06-14T18:54:21.299Z,19.59
2018-06-14T18:56:33.820Z,19.50
2018-06-14T18:58:46.199Z,19.49
2018-06-14T19:00:58.667Z,19.46
2018-06-14T19:03:11.419Z,19.54
2018-06-14T19:05:23.938Z,19.52
2018-06-14T19:07:36.406Z,19.50
2018-06-14T19:09:48.991Z,19.55
2018-06-14T19:12:01.561Z,19.38
2018-06-14T19:14:13.976Z,19.23
2018-06-14T19:16:26.582Z,19.15
2018-06-14T19:18:39.028Z,18.97
2018-06-14T19:20:51.618Z,18.62
2018-06-14T19:23:04.160Z,18.23
2018-06-14T19:25:16.661Z,18.05
2018-06-14T19:27:29.100Z,17.95
2018-06-14T19:29:41.535Z,17.83
2018-06-14T19:31:53.952Z,17.70
2018-06-14T19:34:06.421Z,17.56
2018-06-14T19:36:18.981Z,17.52
2018-06-14T19:38:31.452Z,17.47
2018-06-14T19:40:43.896Z,17.26
2018-06-14T19:42:56.420Z,17.09
2018-06-14T19:45:09.046Z,16.88
2018-06-14T19:47:21.509Z,16.83
2018-06-14T19:49:34.711Z,16.75
2018-06-14T19:51:47.135Z,16.62
2018-06-14T19:53:59.567Z,16.54
2018-06-14T19:56:12.250Z,16.48
2018-06-14T19:58:24.876Z,16.48
2018-06-14T20:00:37.326Z,16.44
2018-06-14T20:02:49.785Z,16.42
2018-06-14T20:05:02.165Z,16.28
2018-06-14T20:07:14.672Z,16.19
2018-06-14T20:09:27.038Z,16.04
2018-06-14T20:11:39.762Z,16.04
2018-06-14T20:13:52.149Z,15.99
2018-06-14T20:16:04.678Z,15.88
2018-06-14T20:18:17.123Z,15.85
2018-06-14T20:20:29.500Z,15.85
2018-06-14T20:22:41.898Z,15.86
2018-06-14T20:24:54.543Z,15.82
2018-06-14T20:27:07.184Z,15.81
2018-06-14T20:29:19.710Z,15.84
2018-06-14T20:31:32.104Z,15.84
2018-06-14T20:33:44.530Z,15.79
2018-06-14T20:35:56.958Z,15.80
2018-06-14T20:38:09.398Z,15.77
2018-06-14T20:40:21.843Z,15.65
2018-06-14T20:42:34.211Z,15.62
2018-06-14T20:44:46.727Z,15.56
2018-06-14T20:46:59.091Z,15.52
2018-06-14T20:49:11.496Z,15.48
2018-06-14T20:51:23.953Z,15.41
2018-06-14T20:53:36.459Z,15.37
2018-06-14T20:55:48.830Z,15.36
2018-06-14T20:58:01.274Z,15.31
2018-06-14T21:00:13.727Z,15.29
2018-06-14T21:02:26.126Z,15.29
2018-06-14T21:04:38.498Z,15.25
2018-06-14T21:06:50.985Z,15.19
2018-06-14T21:09:05.153Z,15.09
2018-06-14T21:11:17.963Z,15.12
2018-06-14T21:13:30.411Z,15.05
2018-06-14T21:15:42.934Z,15.03
2018-06-14T21:17:55.326Z,15.01
2018-06-14T21:20:07.764Z,15.03
2018-06-14T21:22:20.159Z,15.06
2018-06-14T21:24:32.674Z,15.07
2018-06-14T21:26:45.148Z,15.05
2018-06-14T21:28:57.722Z,15.02
2018-06-14T21:31:10.122Z,15.03
2018-06-14T21:33:22.530Z,15.02
2018-06-14T21:35:35.030Z,15.04
2018-06-14T21:37:47.422Z,15.05
2018-06-14T21:40:00.003Z,15.03
2018-06-14T21:42:12.331Z,15.01
2018-06-14T21:44:24.708Z,15.03
2018-06-14T21:46:37.371Z,15.06
2018-06-14T21:48:49.723Z,15.14
2018-06-14T21:51:02.427Z,15.18
2018-06-14T21:53:14.840Z,15.21
2018-06-14T21:55:27.178Z,15.24
2018-06-14T21:57:39.619Z,15.25
2018-06-14T21:59:52.050Z,15.30
2018-06-14T22:02:04.399Z,15.33
2018-06-14T22:04:16.796Z,15.33
2018-06-14T22:06:29.512Z,15.34
2018-06-14T22:08:41.932Z,15.38
2018-06-14T22:10:54.240Z,15.40
2018-06-14T22:13:06.659Z,15.42
2018-06-14T22:15:19.216Z,15.44
2018-06-14T22:17:31.587Z,15.43
2018-06-14T22:19:44.003Z,15.42
2018-06-14T22:21:56.414Z,15.46
2018-06-14T22:24:08.878Z,15.51
2018-06-14T22:26:21.332Z,15.52
2018-06-14T22:28:33.777Z,15.51
2018-06-14T22:30:46.163Z,15.50
2018-06-14T22:33:09.938Z,15.46
2018-06-14T22:35:27.342Z,15.48
2018-06-14T22:37:39.757Z,15.49
2018-06-14T22:39:52.190Z,15.46
2018-06-14T22:42:04.542Z,15.46
2018-06-14T22:44:17.001Z,15.46
2018-06-14T22:46:29.369Z,15.47
2018-06-14T22:48:41.714Z,15.46
2018-06-14T22:51:05.377Z,15.45
2018-06-14T22:53:17.781Z,15.35
2018-06-14T22:55:30.223Z,15.26
2018-06-14T22:57:42.592Z,15.23
2018-06-14T22:59:54.994Z,15.21
2018-06-14T23:02:07.362Z,15.14
2018-06-14T23:04:27.730Z,15.13
2018-06-14T23:06:40.051Z,15.11
2018-06-14T23:08:52.876Z,15.15
2018-06-14T23:11:16.430Z,15.20
2018-06-14T23:13:28.790Z,15.19
2018-06-14T23:15:41.187Z,15.22
2018-06-14T23:17:53.666Z,15.21
2018-06-14T23:20:06.142Z,15.17
2018-06-14T23:22:18.476Z,15.14
2018-06-14T23:24:30.861Z,15.14
2018-06-14T23:26:43.306Z,15.08
2018-06-14T23:28:55.847Z,15.03
2018-06-14T23:31:08.341Z,15.03
2018-06-14T23:33:20.699Z,15.00
2018-06-14T23:35:33.065Z,14.96
2018-06-14T23:37:45.515Z,14.94
2018-06-14T23:39:58.106Z,14.88
2018-06-14T23:42:10.446Z,14.84
2018-06-14T23:44:22.802Z,14.84
2018-06-14T23:46:35.155Z,14.83
2018-06-14T23:48:47.649Z,14.79
2018-06-14T23:51:00.011Z,14.73
2018-06-14T23:53:12.552Z,14.69
2018-06-14T23:55:24.917Z,14.74
2018-06-14T23:57:37.366Z,14.79
2018-06-14T23:59:50.246Z,14.80
